Terminal Aerodrome Forecast
Issued by NWS Twin Cities, MN

Home | Current Version | Previous Version | Graphics & Text | Print | Product List | Glossary On
Versions: 1 2 3 4 5 6 7 8 9 10 11 12 13 14 15 16
000
FTUS43 KMPX 241740
TAFSTC
TAF
KSTC 241740Z 2418/2518 08010KT P6SM -SHRA OVC050
     FM250000 08005KT 5SM -RA BR OVC020
     FM250400 05005KT 4SM -RA BR OVC011
     FM250900 02003KT 3SM -RA BR OVC007=

USA.gov is the U.S. government's official web portal to all federal, state and local government web resources and services.